Time;durP1;ratioP1;P1;durP2;ratioP2;P2;SDS_P1;SDS_P2;PMS_P1;PMS_P2;Temp;Humidity;BMP_temperature;BMP_pressure;BME280_temperature;BME280_humidity;BME280_pressure;Samples;Min_cycle;Max_cycle;Signal;HPM_P1;HPM_P2
2021/10/18 00:01:11;;;;;;;49.53;31.65;;;205.50;2252.80;;;;;;4901912;29;20066;-87
2021/10/18 00:03:37;;;;;;;47.83;30.67;;;205.50;2252.80;;;;;;4923299;29;20043;-85
2021/10/18 00:06:03;;;;;;;53.95;31.50;;;205.50;2252.80;;;;;;4956795;29;20038;-86
2021/10/18 00:08:30;;;;;;;51.30;31.60;;;205.40;2252.80;;;;;;4939805;29;20023;-86
2021/10/18 00:10:56;;;;;;;51.78;30.60;;;205.40;2252.80;;;;;;4939535;29;20046;-86
2021/10/18 00:13:22;;;;;;;50.40;31.48;;;205.30;2252.80;;;;;;4939598;29;20028;-86
2021/10/18 00:15:48;;;;;;;49.10;31.00;;;205.30;2252.80;;;;;;4939337;29;20074;-86
2021/10/18 00:18:14;;;;;;;49.17;31.73;;;205.20;2252.80;;;;;;4939406;29;20023;-85
2021/10/18 00:20:41;;;;;;;47.13;31.20;;;205.30;2252.80;;;;;;4939332;29;20540;-86
2021/10/18 00:23:09;;;;;;;49.72;32.30;;;205.30;2252.80;;;;;;4939412;29;20118;-87
2021/10/18 00:25:35;;;;;;;51.03;32.05;;;205.30;2252.80;;;;;;4956383;28;20027;-86
2021/10/18 00:28:01;;;;;;;49.33;31.17;;;205.30;2252.80;;;;;;4939503;29;20158;-85
2021/10/18 00:30:27;;;;;;;47.28;29.58;;;205.30;2252.80;;;;;;4939266;29;20130;-87
2021/10/18 00:32:52;;;;;;;52.55;31.65;;;205.20;2252.80;;;;;;4939282;29;20538;-86
2021/10/18 00:35:18;;;;;;;49.95;31.30;;;205.30;2252.80;;;;;;4939330;29;20494;-87
2021/10/18 00:37:45;;;;;;;46.90;31.20;;;205.30;2252.80;;;;;;4939164;29;20477;-87
2021/10/18 00:40:12;;;;;;;47.35;31.67;;;205.30;2252.80;;;;;;4939141;29;20039;-86
2021/10/18 01:06:44;;;;;;;56.50;33.20;;;180.10;2252.80;;;;;;4951501;28;20038;-82
2021/10/18 01:10:02;;;;;;;49.70;31.42;;;180.10;2252.80;;;;;;4831981;29;20034;-83
2021/10/18 01:16:35;;;;;;;49.42;31.13;;;204.80;2252.80;;;;;;5251748;23;20052;-83
2021/10/18 01:23:21;;;;;;;57.38;31.75;;;180.10;2252.80;;;;;;4894285;29;20537;-83
2021/10/18 01:26:44;;;;;;;49.38;31.30;;;180.00;2252.80;;;;;;4799717;30;20093;-82
2021/10/18 01:44:18;;;;;;;56.92;35.78;;;204.80;2252.80;;;;;;4849511;29;20057;-86
2021/10/18 02:37:11;;;;;;;63.85;40.10;;;154.10;2252.80;;;;;;4968354;28;20051;-81
2021/10/18 02:50:22;;;;;;;53.40;32.20;;;154.30;2252.80;;;;;;6034182;23;20030;31
2021/10/18 02:53:49;;;;;;;58.42;34.72;;;154.40;2252.80;;;;;;4896054;29;20061;-80
2021/10/18 02:56:27;;;;;;;60.08;36.53;;;154.30;2252.80;;;;;;4887071;29;20144;-79
2021/10/18 03:02:36;;;;;;;64.80;37.25;;;154.10;2252.80;;;;;;514324;27;20312;-80
2021/10/18 03:12:59;;;;;;;63.13;35.92;;;154.00;2252.80;;;;;;3622214;23;20046;31
2021/10/18 03:34:05;;;;;;;78.80;40.85;;;153.80;2252.80;;;;;;6005733;23;20019;31
2021/10/18 03:43:32;;;;;;;67.13;40.45;;;153.80;2252.80;;;;;;514811;27;20327;-82
2021/10/18 03:46:45;;;;;;;71.05;42.45;;;154.00;2252.80;;;;;;5711827;23;20031;31
2021/10/18 04:04:59;;;;;;;60.00;37.55;;;153.80;2252.80;;;;;;5798935;23;20037;31
2021/10/18 04:14:29;;;;;;;67.75;39.35;;;154.00;2252.80;;;;;;5420940;23;20697;31
2021/10/18 04:17:31;;;;;;;65.28;39.00;;;128.90;2252.80;;;;;;5705549;23;20031;-81
2021/10/18 04:20:14;;;;;;;60.78;37.63;;;153.60;2252.80;;;;;;5049569;23;20041;31
2021/10/18 04:26:11;;;;;;;67.28;39.88;;;153.60;2252.80;;;;;;6040983;23;20033;31
2021/10/18 04:29:21;;;;;;;61.08;37.47;;;128.90;2252.80;;;;;;5745352;23;20042;31
2021/10/18 04:32:02;;;;;;;58.83;36.60;;;153.70;2252.80;;;;;;4884293;29;20053;-82
2021/10/18 04:34:30;;;;;;;65.68;40.35;;;153.80;2252.80;;;;;;4883754;29;20017;-82
2021/10/18 04:36:59;;;;;;;70.07;38.95;;;153.70;2252.80;;;;;;4881767;29;20009;-81
2021/10/18 04:39:28;;;;;;;60.95;36.38;;;153.70;2252.80;;;;;;4880360;29;20044;-82
2021/10/18 04:41:56;;;;;;;67.45;40.22;;;153.80;2252.80;;;;;;4865299;29;20071;-82
2021/10/18 04:44:22;;;;;;;68.68;38.53;;;153.80;2252.80;;;;;;4866098;29;20042;-82
2021/10/18 04:46:51;;;;;;;74.75;40.22;;;153.90;2252.80;;;;;;4865165;29;20045;-82
2021/10/18 04:49:19;;;;;;;103.07;50.63;;;153.90;2252.80;;;;;;4879387;29;20543;-82
2021/10/18 04:51:48;;;;;;;78.55;45.97;;;154.00;2252.80;;;;;;4882277;29;20053;-81
2021/10/18 05:04:47;;;;;;;94.32;55.13;;;128.40;2252.80;;;;;;4905609;28;20067;-82
2021/10/18 05:07:14;;;;;;;102.13;52.97;;;128.40;2252.80;;;;;;4867818;29;20037;-82
2021/10/18 05:09:41;;;;;;;104.13;59.13;;;128.60;2252.80;;;;;;4898219;29;20547;-83
2021/10/18 05:12:10;;;;;;;96.45;55.50;;;128.70;2252.80;;;;;;4899836;29;20025;-84
2021/10/18 05:14:36;;;;;;;116.93;61.03;;;128.90;2252.80;;;;;;4903219;29;20041;-83
2021/10/18 05:17:06;;;;;;;113.10;58.88;;;153.60;2252.80;;;;;;4871917;29;20066;-84
2021/10/18 05:19:54;;;;;;;105.20;59.03;;;153.60;2252.80;;;;;;4904438;29;20033;-83
2021/10/18 05:22:25;;;;;;;123.45;68.03;;;153.70;2252.80;;;;;;4874033;29;20022;-83
2021/10/18 05:25:05;;;;;;;128.32;72.05;;;153.80;2252.80;;;;;;4890197;29;20073;-84
2021/10/18 05:27:34;;;;;;;116.60;67.03;;;153.90;2252.80;;;;;;4889327;29;20025;-82
2021/10/18 05:30:19;;;;;;;123.82;68.57;;;153.90;2252.80;;;;;;4889890;29;20029;-82
2021/10/18 06:43:33;;;;;;;77.70;49.53;;;204.80;2252.80;;;;;;5427878;23;20058;-78
2021/10/18 06:46:00;;;;;;;81.55;48.78;;;180.10;2252.80;;;;;;4920527;29;20100;-79
2021/10/18 06:48:53;;;;;;;77.70;47.20;;;204.80;2252.80;;;;;;4905610;29;20501;-77
2021/10/18 06:51:19;;;;;;;72.27;46.10;;;204.90;2252.80;;;;;;4922158;29;20060;-77
2021/10/18 06:54:05;;;;;;;72.82;43.92;;;205.10;2252.80;;;;;;4918427;29;20054;-80
2021/10/18 06:56:34;;;;;;;73.57;43.83;;;205.20;2252.80;;;;;;4907694;29;20493;-79
2021/10/18 06:59:02;;;;;;;77.90;46.25;;;205.30;2252.80;;;;;;4894360;29;20111;-79
2021/10/18 07:01:33;;;;;;;76.65;48.53;;;205.40;2252.80;;;;;;4892848;29;20025;-81
2021/10/18 07:04:06;;;;;;;76.38;50.13;;;205.50;2252.80;;;;;;4889203;29;20088;-83
2021/10/18 07:06:33;;;;;;;89.50;54.73;;;205.60;2252.80;;;;;;4900526;29;20033;-78
2021/10/18 07:08:59;;;;;;;88.45;54.58;;;205.70;2252.80;;;;;;4883410;29;20123;-78
2021/10/18 07:11:26;;;;;;;74.65;47.72;;;230.40;2252.80;;;;;;4899699;29;20111;-77
2021/10/18 07:13:55;;;;;;;97.35;60.88;;;230.60;2252.80;;;;;;4882728;29;20025;-77
2021/10/18 07:16:21;;;;;;;99.45;59.55;;;230.70;2252.80;;;;;;4899683;29;20036;-78
2021/10/18 07:18:47;;;;;;;100.43;60.55;;;230.90;2252.80;;;;;;4899355;29;20024;-78
2021/10/18 07:21:13;;;;;;;103.30;67.65;;;230.90;2252.80;;;;;;4906638;29;20037;-85
2021/10/18 07:23:39;;;;;;;81.70;52.08;;;231.00;2252.80;;;;;;4897012;29;20438;-78
2021/10/18 07:26:07;;;;;;;67.63;45.47;;;231.10;2252.80;;;;;;4898323;29;20017;-79
2021/10/18 07:28:35;;;;;;;66.82;43.40;;;231.30;2252.80;;;;;;4899451;29;20020;-78
2021/10/18 07:31:01;;;;;;;69.80;43.00;;;256.00;2252.80;;;;;;4897196;29;20073;-78
2021/10/18 07:33:27;;;;;;;61.13;41.53;;;256.10;2252.80;;;;;;4882279;29;20044;-79
2021/10/18 07:35:55;;;;;;;65.13;40.63;;;256.30;2252.80;;;;;;4882099;29;20029;-80
2021/10/18 07:38:23;;;;;;;61.60;41.63;;;256.50;2227.20;;;;;;4880289;29;20032;-78
2021/10/18 07:40:52;;;;;;;58.80;40.22;;;256.70;2201.60;;;;;;4899447;29;20033;-80
2021/10/18 07:43:18;;;;;;;55.33;37.83;;;256.90;2176.00;;;;;;4899231;29;20509;-83
2021/10/18 07:45:44;;;;;;;54.47;36.70;;;281.70;2176.00;;;;;;4899291;29;20044;-78
2021/10/18 07:48:11;;;;;;;57.70;37.35;;;281.80;2150.40;;;;;;4883029;29;20032;-87
2021/10/18 07:50:36;;;;;;;53.60;38.03;;;307.30;2176.00;;;;;;4883790;29;20037;-88
2021/10/18 07:53:02;;;;;;;54.63;37.17;;;282.30;2124.80;;;;;;4883608;29;20210;-88
2021/10/18 07:55:30;;;;;;;51.13;35.78;;;282.50;2073.60;;;;;;4900114;29;20037;-88
2021/10/18 07:57:59;;;;;;;54.53;35.25;;;307.30;2073.60;;;;;;4900216;29;20031;-87
2021/10/18 08:00:25;;;;;;;52.13;36.65;;;307.70;2048.00;;;;;;4899960;29;20036;-88
2021/10/18 08:02:51;;;;;;;53.75;36.17;;;308.10;1996.80;;;;;;4883399;29;20143;-86
2021/10/18 08:05:17;;;;;;;54.78;38.45;;;333.00;1971.20;;;;;;4883178;29;20032;-87
2021/10/18 08:07:49;;;;;;;61.13;40.13;;;333.40;1971.20;;;;;;4882643;29;20033;-87
2021/10/18 08:10:23;;;;;;;61.33;41.30;;;358.50;1920.00;;;;;;4882996;29;20056;-87
2021/10/18 08:12:57;;;;;;;48.70;33.53;;;358.90;1868.80;;;;;;4883109;29;20064;-86
2021/10/18 08:15:24;;;;;;;45.28;29.23;;;384.00;1817.60;;;;;;4883019;29;20032;-84
2021/10/18 08:17:51;;;;;;;44.17;28.70;;;436.00;1612.80;;;;;;4882766;29;20031;-84
2021/10/18 08:20:17;;;;;;;41.53;29.40;;;512.20;1382.40;;;;;;4882381;29;20028;-84
2021/10/18 08:22:44;;;;;;;43.55;27.42;;;563.60;1203.20;;;;;;4882429;29;20032;-84
2021/10/18 08:25:10;;;;;;;37.70;26.27;;;614.40;1075.20;;;;;;4882464;29;20032;-82
2021/10/18 08:27:36;;;;;;;37.03;27.70;;;640.20;998.40;;;;;;4881977;29;20029;-84
2021/10/18 08:30:06;;;;;;;33.15;26.38;;;665.70;947.20;;;;;;4882055;29;20128;-84
2021/10/18 08:32:34;;;;;;;32.13;22.20;;;666.30;921.60;;;;;;4888009;29;20490;-85
2021/10/18 08:35:00;;;;;;;26.27;21.45;;;691.80;870.40;;;;;;4889164;29;20056;-83
2021/10/18 08:40:11;;;;;;;23.80;18.60;;;742.60;819.20;;;;;;4905424;29;20490;-84
2021/10/18 08:43:02;;;;;;;27.17;18.77;;;742.80;819.20;;;;;;4889134;29;20024;-84
2021/10/18 08:45:29;;;;;;;25.88;20.95;;;742.90;819.20;;;;;;4889542;29;20071;-88
2021/10/18 08:47:55;;;;;;;27.10;19.42;;;742.50;819.20;;;;;;4887255;29;20116;-89
2021/10/18 08:50:22;;;;;;;34.13;23.38;;;691.30;844.80;;;;;;4870451;29;20180;-89
2021/10/18 08:52:49;;;;;;;27.70;18.75;;;691.30;870.40;;;;;;4871883;29;20534;-89
2021/10/18 08:55:15;;;;;;;22.50;17.88;;;691.70;870.40;;;;;;4871587;29;20029;-89
2021/10/18 08:57:41;;;;;;;31.10;19.88;;;717.30;768.00;;;;;;4889489;29;20032;-90
2021/10/18 09:00:27;;;;;;;23.52;18.52;;;717.50;768.00;;;;;;4871428;29;20488;-88
2021/10/18 09:02:56;;;;;;;33.95;19.77;;;717.00;819.20;;;;;;4887435;29;20409;-90
2021/10/18 09:05:23;;;;;;;46.50;17.92;;;743.10;768.00;;;;;;4870513;29;20020;-89
2021/10/18 09:07:48;;;;;;;21.05;14.20;;;794.10;742.40;;;;;;4871269;29;20486;-88
2021/10/18 09:10:14;;;;;;;19.63;13.23;;;793.90;768.00;;;;;;4886762;29;20060;-83
2021/10/18 09:12:41;;;;;;;25.60;14.05;;;819.20;716.80;;;;;;4889038;29;20115;-87
2021/10/18 09:15:25;;;;;;;12.45;8.30;;;819.40;691.20;;;;;;4869962;29;20028;-86
2021/10/18 09:17:56;;;;;;;10.90;7.78;;;794.50;665.60;;;;;;4869613;29;20364;-87
2021/10/18 09:20:35;;;;;;;15.30;10.05;;;768.50;716.80;;;;;;4872989;29;20459;-88
2021/10/18 09:23:37;;;;;;;18.67;10.15;;;768.30;716.80;;;;;;4872302;29;20479;-89
2021/10/18 09:26:06;;;;;;;36.33;29.17;;;691.90;742.40;;;;;;4881267;29;20031;-89
2021/10/18 09:28:33;;;;;;;23.02;13.38;;;640.60;870.40;;;;;;4887797;29;20027;-89
2021/10/18 09:31:00;;;;;;;19.17;11.27;;;614.60;921.60;;;;;;4873161;29;20041;-83
2021/10/18 09:33:33;;;;;;;13.15;9.75;;;614.60;921.60;;;;;;4887402;29;20025;-83
2021/10/18 09:36:02;;;;;;;12.13;8.15;;;665.80;844.80;;;;;;4884808;29;20025;-83
2021/10/18 09:38:28;;;;;;;14.88;10.68;;;640.10;844.80;;;;;;4885632;29;20017;-89
2021/10/18 09:40:57;;;;;;;14.57;11.40;;;615.10;870.40;;;;;;4887700;29;20490;-88
2021/10/18 09:43:40;;;;;;;19.67;14.93;;;614.40;947.20;;;;;;4872498;29;20063;-88
2021/10/18 10:54:31;;;;;;;14.70;8.85;;;435.80;1331.20;;;;;;4879479;29;20050;-90
2021/10/18 10:57:09;;;;;;;13.70;8.25;;;435.70;1331.20;;;;;;4877360;29;20053;-92
2021/10/18 10:59:36;;;;;;;14.25;8.75;;;435.80;1331.20;;;;;;4880445;29;20021;-91
2021/10/18 11:02:09;;;;;;;12.65;7.43;;;435.80;1331.20;;;;;;4864708;29;20041;-92
2021/10/18 11:04:36;;;;;;;13.50;8.70;;;435.90;1331.20;;;;;;4863363;29;20077;-92
2021/10/18 11:07:04;;;;;;;15.68;7.63;;;435.90;1382.40;;;;;;4881059;29;20029;-91
2021/10/18 11:09:47;;;;;;;15.07;6.65;;;435.80;1356.80;;;;;;4877542;29;20021;-92
2021/10/18 11:12:33;;;;;;;13.25;7.18;;;435.90;1331.20;;;;;;4885745;29;20048;-92
2021/10/18 11:15:05;;;;;;;10.00;5.53;;;435.80;1331.20;;;;;;4880396;29;20036;-80
2021/10/18 11:17:34;;;;;;;10.82;6.43;;;435.80;1305.60;;;;;;4865335;29;20029;-81
2021/10/18 11:20:04;;;;;;;13.75;7.10;;;435.70;1331.20;;;;;;4865203;29;20032;-83
2021/10/18 11:22:35;;;;;;;12.00;6.15;;;435.70;1331.20;;;;;;4882512;29;20029;-83
2021/10/18 11:25:07;;;;;;;19.70;8.48;;;435.70;1331.20;;;;;;4881912;29;20025;-92
2021/10/18 11:27:35;;;;;;;13.98;6.55;;;435.60;1356.80;;;;;;4881421;29;20036;-83
2021/10/18 11:30:10;;;;;;;12.80;7.22;;;435.60;1331.20;;;;;;4864752;29;20044;-88
2021/10/18 11:32:37;;;;;;;12.30;6.40;;;435.70;1331.20;;;;;;4865338;29;20037;-87
2021/10/18 11:35:12;;;;;;;17.38;7.13;;;435.90;1305.60;;;;;;4865091;29;20029;-90
2021/10/18 11:37:54;;;;;;;12.30;6.65;;;435.90;1305.60;;;;;;4881400;29;20382;-85
2021/10/18 11:40:24;;;;;;;12.90;6.72;;;435.80;1305.60;;;;;;4881468;29;20439;-84
2021/10/18 11:42:54;;;;;;;12.20;7.03;;;435.80;1305.60;;;;;;4881315;29;20028;-82
2021/10/18 11:45:24;;;;;;;10.80;6.95;;;435.70;1331.20;;;;;;4881042;29;20059;-85
2021/10/18 11:47:51;;;;;;;9.00;5.60;;;435.70;1331.20;;;;;;4864569;29;20113;-82
2021/10/18 11:50:25;;;;;;;10.43;5.70;;;435.80;1305.60;;;;;;4878560;29;20092;-83
2021/10/18 11:52:53;;;;;;;11.23;6.35;;;435.90;1305.60;;;;;;4863580;29;20115;-79
2021/10/18 11:55:22;;;;;;;10.75;5.65;;;435.90;1305.60;;;;;;4864399;29;20455;-86
2021/10/18 11:57:50;;;;;;;13.48;6.32;;;435.90;1280.00;;;;;;4864361;29;20025;-82
2021/10/18 12:00:23;;;;;;;15.68;5.97;;;435.90;1305.60;;;;;;4864485;29;20061;-82
2021/10/18 12:02:50;;;;;;;9.55;6.30;;;436.00;1305.60;;;;;;4881088;29;20554;-82
2021/10/18 12:05:17;;;;;;;17.73;6.60;;;460.80;1331.20;;;;;;4864378;29;20029;-80
2021/10/18 12:07:48;;;;;;;11.98;6.35;;;461.10;1305.60;;;;;;4863596;29;20043;-80
2021/10/18 12:10:23;;;;;;;17.20;6.10;;;460.90;1305.60;;;;;;4863863;29;20064;-81
2021/10/18 12:13:11;;;;;;;11.60;5.75;;;461.00;1305.60;;;;;;4880693;29;20116;-80
2021/10/18 12:15:51;;;;;;;11.18;5.93;;;460.80;1331.20;;;;;;4863622;29;20483;-79
2021/10/18 12:18:20;;;;;;;13.57;6.63;;;436.10;1331.20;;;;;;4880237;29;20037;-82
2021/10/18 12:20:51;;;;;;;11.32;6.38;;;436.00;1331.20;;;;;;4879618;29;20116;-81
2021/10/18 12:23:23;;;;;;;10.02;5.88;;;436.00;1331.20;;;;;;4863469;29;20376;-81
2021/10/18 12:25:58;;;;;;;10.38;6.65;;;436.00;1331.20;;;;;;4862104;29;20025;-80
2021/10/18 12:28:26;;;;;;;11.63;5.55;;;436.00;1331.20;;;;;;4878460;29;20043;-80
2021/10/18 12:30:51;;;;;;;11.70;6.53;;;435.90;1305.60;;;;;;4878243;29;20033;-81
2021/10/18 12:33:17;;;;;;;10.45;5.53;;;436.10;1356.80;;;;;;4862194;29;20029;-81
2021/10/18 12:35:57;;;;;;;10.15;5.75;;;460.80;1356.80;;;;;;4880183;29;20043;-81
2021/10/18 12:38:29;;;;;;;11.05;5.45;;;460.90;1356.80;;;;;;4880432;29;20056;-81
2021/10/18 12:41:17;;;;;;;16.60;7.75;;;461.10;1356.80;;;;;;4880147;29;20419;-81
2021/10/18 12:43:44;;;;;;;11.00;5.60;;;461.10;1331.20;;;;;;4863059;29;20547;-79
2021/10/18 12:46:25;;;;;;;14.68;9.15;;;461.10;1331.20;;;;;;4863391;29;20057;-83
2021/10/18 12:49:04;;;;;;;7.57;4.65;;;460.80;1356.80;;;;;;4863472;29;20502;-82
2021/10/18 12:51:41;;;;;;;10.82;5.90;;;436.00;1331.20;;;;;;4863374;29;20041;-82
2021/10/18 12:54:27;;;;;;;11.63;6.20;;;435.90;1356.80;;;;;;4863225;29;20033;-81
2021/10/18 12:57:05;;;;;;;11.07;5.43;;;435.70;1331.20;;;;;;4863097;29;20032;-83
2021/10/18 12:59:33;;;;;;;11.23;5.95;;;435.60;1382.40;;;;;;4879934;29;20391;-81
2021/10/18 13:02:35;;;;;;;9.77;5.50;;;435.50;1408.00;;;;;;4863228;29;20093;-82
2021/10/18 13:05:15;;;;;;;15.20;7.68;;;435.40;1408.00;;;;;;4804468;29;20114;-81
2021/10/18 13:07:59;;;;;;;12.80;8.20;;;435.40;1382.40;;;;;;4789821;29;20038;-81
2021/10/18 13:10:36;;;;;;;13.25;7.75;;;435.40;1408.00;;;;;;4789052;29;20083;-84
2021/10/18 13:13:13;;;;;;;30.33;22.02;;;435.50;1382.40;;;;;;4804599;29;20054;-82
2021/10/18 13:15:41;;;;;;;50.35;35.22;;;435.60;1382.40;;;;;;4805041;29;20038;-90
2021/10/18 13:18:09;;;;;;;35.22;20.88;;;435.80;1408.00;;;;;;4789292;29;20038;-80
2021/10/18 13:20:36;;;;;;;20.00;17.80;;;460.80;1382.40;;;;;;4789294;29;20043;-81
2021/10/18 13:23:06;;;;;;;57.85;42.92;;;460.90;1356.80;;;;;;4803752;29;20031;-81
2021/10/18 13:25:36;;;;;;;28.77;16.58;;;461.20;1331.20;;;;;;4800157;29;20134;-82
2021/10/18 13:28:03;;;;;;;17.05;10.93;;;461.30;1331.20;;;;;;4789318;29;20034;-82
2021/10/18 13:30:30;;;;;;;15.88;11.48;;;461.20;1305.60;;;;;;4804531;29;20074;-85
2021/10/18 13:32:58;;;;;;;23.20;14.57;;;461.10;1305.60;;;;;;4791275;29;20042;-85
2021/10/18 13:35:25;;;;;;;24.13;13.80;;;461.10;1305.60;;;;;;4793258;29;20039;-82
2021/10/18 13:37:51;;;;;;;20.83;10.73;;;461.20;1331.20;;;;;;4811325;29;20035;-81
2021/10/18 13:40:18;;;;;;;16.90;8.88;;;461.20;1331.20;;;;;;4866687;29;20041;-83
2021/10/18 13:42:46;;;;;;;33.30;24.85;;;461.20;1331.20;;;;;;4883509;29;20025;-84
2021/10/18 13:45:14;;;;;;;15.13;7.70;;;460.90;1331.20;;;;;;4878503;29;20139;-84
2021/10/18 13:47:40;;;;;;;12.63;8.00;;;460.90;1331.20;;;;;;4885041;29;20055;-82
2021/10/18 13:50:07;;;;;;;14.00;6.63;;;460.80;1331.20;;;;;;4885026;29;20498;-83
2021/10/18 13:52:34;;;;;;;11.10;6.32;;;436.00;1356.80;;;;;;4885321;29;20218;-89
2021/10/18 13:55:01;;;;;;;11.88;6.90;;;435.80;1356.80;;;;;;4885446;29;20076;-88
2021/10/18 13:57:30;;;;;;;12.10;7.15;;;435.60;1382.40;;;;;;4885519;29;20024;-90
2021/10/18 13:59:56;;;;;;;14.05;7.00;;;435.60;1408.00;;;;;;4885541;29;20028;-86
2021/10/18 14:02:23;;;;;;;8.90;5.80;;;435.50;1433.60;;;;;;4885417;29;20035;-87
2021/10/18 14:04:49;;;;;;;14.30;6.80;;;435.40;1408.00;;;;;;4885362;29;20025;-87
2021/10/18 14:07:16;;;;;;;11.63;5.72;;;435.30;1433.60;;;;;;4885466;29;20028;-85
2021/10/18 14:09:42;;;;;;;14.38;8.60;;;435.30;1433.60;;;;;;4885554;29;20029;-84
2021/10/18 14:12:09;;;;;;;17.15;7.10;;;435.30;1408.00;;;;;;4885063;29;20029;-87
2021/10/18 14:14:36;;;;;;;13.20;6.20;;;435.30;1408.00;;;;;;4885056;29;20056;-88
2021/10/18 14:17:02;;;;;;;14.43;7.10;;;435.30;1459.20;;;;;;4884694;29;20028;-87
2021/10/18 14:19:27;;;;;;;16.67;6.57;;;435.20;1433.60;;;;;;4901575;29;20036;-87
2021/10/18 14:21:53;;;;;;;14.45;8.48;;;435.20;1459.20;;;;;;4884832;29;20032;-86
2021/10/18 14:24:19;;;;;;;15.52;6.75;;;410.50;1433.60;;;;;;4916406;29;20032;-86
2021/10/18 14:26:45;;;;;;;23.63;10.20;;;410.40;1459.20;;;;;;4901620;29;20029;-88
2021/10/18 14:29:11;;;;;;;20.55;7.28;;;410.40;1459.20;;;;;;4884796;29;20036;-89
2021/10/18 14:31:37;;;;;;;21.00;11.05;;;410.30;1459.20;;;;;;4884786;29;20131;-88
2021/10/18 14:34:05;;;;;;;18.75;12.05;;;410.30;1459.20;;;;;;4884983;29;20494;-84
2021/10/18 14:36:31;;;;;;;21.60;12.27;;;410.30;1484.80;;;;;;4885043;29;20029;-84
2021/10/18 14:38:57;;;;;;;29.73;17.00;;;410.30;1510.40;;;;;;4884710;29;20111;-87
2021/10/18 14:41:29;;;;;;;65.68;39.88;;;410.30;1484.80;;;;;;4884594;29;20056;-86
2021/10/18 14:43:57;;;;;;;64.75;37.55;;;410.20;1510.40;;;;;;4884080;29;20032;-86
2021/10/18 14:46:26;;;;;;;59.58;31.13;;;410.20;1510.40;;;;;;4884588;29;20024;-87
2021/10/18 14:48:53;;;;;;;75.88;37.30;;;410.10;1484.80;;;;;;4884620;29;20056;-85
2021/10/18 14:51:20;;;;;;;47.38;23.63;;;410.10;1510.40;;;;;;4901312;29;20032;-88
2021/10/18 14:53:50;;;;;;;57.55;23.67;;;435.20;1510.40;;;;;;4884410;29;20024;-87
2021/10/18 14:56:18;;;;;;;61.47;23.00;;;410.00;1536.00;;;;;;4901197;29;20052;-87
2021/10/18 14:58:44;;;;;;;37.95;16.42;;;410.00;1536.00;;;;;;4884402;29;20072;-86
2021/10/18 15:01:13;;;;;;;34.95;14.98;;;410.00;1510.40;;;;;;4901490;29;20382;-87
2021/10/18 15:03:43;;;;;;;36.05;16.00;;;409.90;1536.00;;;;;;4901102;29;20043;-88
2021/10/18 15:06:10;;;;;;;37.60;18.52;;;409.80;1536.00;;;;;;4884264;29;20487;-87
2021/10/18 15:08:36;;;;;;;44.45;20.27;;;409.80;1561.60;;;;;;4884547;29;20029;-87
2021/10/18 15:11:03;;;;;;;45.13;21.40;;;409.80;1561.60;;;;;;4884357;29;20043;-86
2021/10/18 15:13:29;;;;;;;52.38;23.63;;;409.80;1561.60;;;;;;4884268;29;20111;-87
2021/10/18 15:15:56;;;;;;;44.45;23.27;;;409.70;1587.20;;;;;;4884007;29;20064;-86
2021/10/18 15:18:22;;;;;;;54.42;29.08;;;409.70;1612.80;;;;;;4900661;29;20069;-85
2021/10/18 15:20:48;;;;;;;110.82;53.85;;;409.70;1587.20;;;;;;4883971;29;20056;-85
2021/10/18 15:23:14;;;;;;;102.72;50.15;;;409.60;1612.80;;;;;;4883899;29;20486;-86
2021/10/18 15:25:41;;;;;;;92.22;45.10;;;409.60;1612.80;;;;;;4883518;29;20598;-87
2021/10/18 15:28:07;;;;;;;54.83;28.75;;;384.90;1612.80;;;;;;4883928;29;20037;-85
2021/10/18 15:30:34;;;;;;;53.75;30.92;;;384.80;1612.80;;;;;;4883694;29;20041;-84
2021/10/18 15:33:00;;;;;;;31.00;17.67;;;384.80;1612.80;;;;;;4900663;29;20037;-84
2021/10/18 15:35:26;;;;;;;35.65;19.55;;;384.80;1612.80;;;;;;4900431;29;20028;-86
2021/10/18 15:37:53;;;;;;;36.80;18.65;;;384.70;1638.40;;;;;;4883793;29;20081;-85
2021/10/18 15:40:19;;;;;;;40.20;19.10;;;384.70;1638.40;;;;;;4883896;29;20032;-88
2021/10/18 15:42:46;;;;;;;39.00;19.88;;;384.70;1638.40;;;;;;4883730;29;20024;-85
2021/10/18 15:45:12;;;;;;;38.92;20.40;;;384.70;1664.00;;;;;;4870981;29;20049;-85
2021/10/18 15:47:42;;;;;;;40.03;19.77;;;384.70;1638.40;;;;;;4881521;29;20025;-86
2021/10/18 15:50:09;;;;;;;38.67;21.77;;;384.60;1664.00;;;;;;4864552;29;20059;-85
2021/10/18 15:52:35;;;;;;;46.15;27.10;;;384.50;1689.60;;;;;;4864651;29;20050;-83
2021/10/18 15:55:02;;;;;;;58.30;33.85;;;384.50;1664.00;;;;;;4863690;29;20432;-85
2021/10/18 15:57:29;;;;;;;72.45;32.03;;;384.50;1664.00;;;;;;4864438;29;20025;-84
2021/10/18 15:59:55;;;;;;;48.95;19.83;;;384.50;1689.60;;;;;;4881252;29;20031;-85
2021/10/18 16:02:21;;;;;;;41.95;17.48;;;384.50;1689.60;;;;;;4864457;29;20120;-88
2021/10/18 16:04:47;;;;;;;59.00;20.45;;;384.50;1689.60;;;;;;4864560;29;20060;-88
2021/10/18 16:07:13;;;;;;;39.78;23.45;;;384.50;1715.20;;;;;;4864671;29;20037;-86
2021/10/18 16:09:40;;;;;;;117.43;55.42;;;384.40;1689.60;;;;;;4864558;29;20120;-86
2021/10/18 16:12:06;;;;;;;57.63;29.40;;;384.40;1689.60;;;;;;4864782;29;20483;-87
2021/10/18 16:14:32;;;;;;;50.03;26.10;;;384.40;1715.20;;;;;;4864643;29;20029;-86
2021/10/18 16:17:01;;;;;;;57.88;25.83;;;384.40;1715.20;;;;;;4863670;29;20025;-85
2021/10/18 16:19:27;;;;;;;50.85;25.73;;;384.40;1740.80;;;;;;4880829;29;20040;-86
2021/10/18 16:21:53;;;;;;;55.72;29.48;;;384.30;1740.80;;;;;;4863201;29;20056;-87
2021/10/18 16:24:19;;;;;;;55.20;30.25;;;384.30;1740.80;;;;;;4862874;29;20372;-86
2021/10/18 16:26:45;;;;;;;49.92;30.15;;;384.30;1740.80;;;;;;4862246;29;20033;-86
2021/10/18 16:29:11;;;;;;;46.63;28.42;;;384.20;1740.80;;;;;;4862643;29;20073;-87
2021/10/18 16:31:38;;;;;;;57.13;30.02;;;384.20;1740.80;;;;;;4862678;29;20041;-88
2021/10/18 16:34:04;;;;;;;52.75;28.90;;;384.20;1766.40;;;;;;4879421;29;20025;-88
2021/10/18 16:36:30;;;;;;;53.53;26.13;;;384.20;1766.40;;;;;;4863923;29;20039;-87
2021/10/18 16:38:56;;;;;;;47.13;26.17;;;384.10;1792.00;;;;;;4864217;29;20475;-88
2021/10/18 16:41:22;;;;;;;47.47;25.20;;;384.10;1792.00;;;;;;4864312;29;20032;-86
2021/10/18 16:43:48;;;;;;;56.90;30.50;;;384.10;1792.00;;;;;;4865191;29;20064;-87
2021/10/18 16:46:14;;;;;;;60.25;33.00;;;384.10;1817.60;;;;;;4914213;29;20463;-88
2021/10/18 16:48:40;;;;;;;77.18;39.97;;;384.10;1817.60;;;;;;4882878;29;20435;-86
2021/10/18 16:51:05;;;;;;;74.85;42.85;;;384.00;1817.60;;;;;;4898634;29;20099;-87
2021/10/18 16:53:31;;;;;;;86.72;44.30;;;384.10;1817.60;;;;;;4881686;29;20021;-87
2021/10/18 16:55:57;;;;;;;90.75;46.60;;;384.10;1817.60;;;;;;4882170;29;20386;-86
2021/10/18 16:58:23;;;;;;;85.07;46.20;;;384.00;1792.00;;;;;;4882234;29;20032;-89
2021/10/18 17:00:49;;;;;;;79.78;44.67;;;384.00;1817.60;;;;;;4882194;29;20475;-87
2021/10/18 17:03:16;;;;;;;74.70;41.17;;;384.00;1817.60;;;;;;4882304;29;20028;-87
2021/10/18 17:05:43;;;;;;;68.72;39.10;;;359.30;1843.20;;;;;;4881660;29;20033;-87
2021/10/18 17:08:09;;;;;;;81.80;40.53;;;359.30;1843.20;;;;;;4881795;29;20025;-87
2021/10/18 17:10:36;;;;;;;80.05;40.10;;;359.20;1868.80;;;;;;4897692;29;20047;-86
2021/10/18 17:13:02;;;;;;;85.57;45.80;;;359.20;1894.40;;;;;;4882311;29;20474;-87
2021/10/18 17:15:30;;;;;;;87.72;46.15;;;359.10;1894.40;;;;;;4882084;29;20039;-86
2021/10/18 17:17:56;;;;;;;93.75;49.88;;;359.10;1920.00;;;;;;4881754;29;20116;-86
2021/10/18 17:20:23;;;;;;;79.35;43.63;;;359.10;1894.40;;;;;;4879747;29;20029;-87
2021/10/18 17:22:49;;;;;;;67.97;35.15;;;359.00;1920.00;;;;;;4880159;29;20518;-87
2021/10/18 17:25:15;;;;;;;62.58;32.92;;;359.10;1920.00;;;;;;4880859;29;20119;-87
2021/10/18 17:27:41;;;;;;;71.10;31.80;;;359.10;1920.00;;;;;;4881823;29;20091;-87
2021/10/18 17:30:08;;;;;;;60.17;27.55;;;359.00;1945.60;;;;;;4881671;29;20482;-86
2021/10/18 17:32:38;;;;;;;48.22;26.58;;;358.90;1971.20;;;;;;4898468;29;20478;-87
2021/10/18 17:35:05;;;;;;;43.63;23.25;;;358.90;1920.00;;;;;;4882046;29;20469;-86
2021/10/18 17:37:32;;;;;;;40.67;23.10;;;358.90;1920.00;;;;;;4881529;29;20032;-86
2021/10/18 17:39:59;;;;;;;45.22;22.30;;;358.80;1945.60;;;;;;4881738;29;20021;-86
2021/10/18 17:42:25;;;;;;;41.83;23.45;;;358.90;1894.40;;;;;;4882062;29;20048;-85